createdAt,value
2018-11-29T00:00:36.943Z,99991.00
2018-11-29T00:03:13.140Z,99997.00
2018-11-29T00:05:55.016Z,100004.00
2018-11-29T00:08:31.216Z,100001.00
2018-11-29T00:11:07.508Z,100004.00
2018-11-29T00:13:43.740Z,99997.00
2018-11-29T00:16:19.984Z,99994.00
2018-11-29T00:18:56.129Z,99990.00
2018-11-29T00:21:32.391Z,99986.00
2018-11-29T00:24:08.561Z,99980.00
2018-11-29T00:26:44.727Z,99981.00
2018-11-29T00:29:21.045Z,99975.00
2018-11-29T00:31:57.335Z,99973.00
2018-11-29T00:34:33.496Z,99964.00
2018-11-29T00:37:09.675Z,99965.00
2018-11-29T00:39:45.866Z,99957.00
2018-11-29T00:42:22.067Z,99960.00
2018-11-29T00:44:58.338Z,99964.00
2018-11-29T00:47:34.440Z,99966.00
2018-11-29T00:50:13.006Z,99965.00
2018-11-29T00:52:50.471Z,99957.00
2018-11-29T00:55:26.546Z,99953.00
2018-11-29T00:58:02.689Z,99961.00
2018-11-29T01:00:39.049Z,99966.00
2018-11-29T01:03:15.263Z,99974.00
2018-11-29T01:05:51.480Z,99972.00
2018-11-29T01:08:27.665Z,99974.00
2018-11-29T01:11:03.995Z,99969.00
2018-11-29T01:13:40.311Z,99965.00
2018-11-29T01:16:16.603Z,99968.00
2018-11-29T01:18:52.896Z,99966.00
2018-11-29T01:21:29.113Z,99959.00
2018-11-29T01:24:05.553Z,99960.00
2018-11-29T01:26:41.730Z,99970.00
2018-11-29T01:29:18.038Z,99965.00
2018-11-29T01:31:54.163Z,99970.00
2018-11-29T01:34:30.484Z,99962.00
2018-11-29T01:37:06.902Z,99959.00
2018-11-29T01:39:43.220Z,99961.00
2018-11-29T01:42:19.556Z,99951.00
2018-11-29T01:44:55.904Z,99943.00
2018-11-29T01:47:32.140Z,99934.00
2018-11-29T01:50:08.524Z,99930.00
2018-11-29T01:52:44.678Z,99930.00
2018-11-29T01:55:20.986Z,99936.00
2018-11-29T01:57:57.347Z,99949.00
2018-11-29T02:00:33.504Z,99945.00
2018-11-29T02:03:09.647Z,99942.00
2018-11-29T02:05:46.033Z,99943.00
2018-11-29T02:08:22.383Z,99939.00
2018-11-29T02:10:58.660Z,99931.00
2018-11-29T02:13:34.860Z,99928.00
2018-11-29T02:16:11.172Z,99922.00
2018-11-29T02:18:47.462Z,99933.00
2018-11-29T02:21:23.829Z,99940.00
2018-11-29T02:23:59.986Z,99944.00
2018-11-29T02:26:36.216Z,99940.00
2018-11-29T02:29:12.445Z,99935.00
2018-11-29T02:31:48.629Z,99938.00
2018-11-29T02:34:24.947Z,99929.00
2018-11-29T02:37:01.137Z,99929.00
2018-11-29T02:39:37.457Z,99925.00
2018-11-29T02:42:13.687Z,99919.00
2018-11-29T02:44:49.837Z,99917.00
2018-11-29T02:47:26.025Z,99914.00
2018-11-29T02:50:02.185Z,99909.00
2018-11-29T02:52:38.407Z,99902.00
2018-11-29T02:55:14.589Z,99903.00
2018-11-29T02:57:50.783Z,99901.00
2018-11-29T03:00:27.193Z,99900.00
2018-11-29T03:03:03.563Z,99904.00
2018-11-29T03:05:39.853Z,99895.00
2018-11-29T03:08:16.118Z,99899.00
2018-11-29T03:10:52.538Z,99897.00
2018-11-29T03:13:28.909Z,99897.00
2018-11-29T03:16:05.244Z,99896.00
2018-11-29T03:18:41.510Z,99890.00
2018-11-29T03:21:17.609Z,99883.00
2018-11-29T03:23:53.869Z,99882.00
2018-11-29T03:26:30.179Z,99884.00
2018-11-29T03:29:06.986Z,99885.00
2018-11-29T03:31:43.298Z,99886.00
2018-11-29T03:34:19.473Z,99881.00
2018-11-29T03:36:55.823Z,99874.00
2018-11-29T03:39:31.967Z,99877.00
2018-11-29T03:42:08.116Z,99878.00
2018-11-29T03:44:44.478Z,99880.00
2018-11-29T03:47:20.649Z,99881.00
2018-11-29T03:49:56.876Z,99884.00
2018-11-29T03:52:33.136Z,99883.00
2018-11-29T03:55:10.724Z,99885.00
2018-11-29T03:57:46.949Z,99888.00
2018-11-29T04:00:23.281Z,99885.00
2018-11-29T04:02:59.410Z,99884.00
2018-11-29T04:05:35.716Z,99877.00
2018-11-29T04:08:12.009Z,99879.00
2018-11-29T04:10:48.208Z,99879.00
2018-11-29T04:13:24.426Z,99877.00
2018-11-29T04:16:00.779Z,99877.00
2018-11-29T04:18:36.982Z,99877.00
2018-11-29T04:21:13.244Z,99881.00
2018-11-29T04:23:49.377Z,99882.00
2018-11-29T04:26:25.549Z,99881.00
2018-11-29T04:29:01.772Z,99879.00
2018-11-29T04:31:38.265Z,99874.00
2018-11-29T04:34:14.476Z,99878.00
2018-11-29T04:36:50.717Z,99875.00
2018-11-29T04:39:26.865Z,99878.00
2018-11-29T04:42:03.071Z,99877.00
2018-11-29T04:44:39.300Z,99869.00
2018-11-29T04:47:15.825Z,99859.00
2018-11-29T04:49:58.338Z,99850.00
2018-11-29T04:52:34.893Z,99840.00
2018-11-29T04:55:11.375Z,99837.00
2018-11-29T04:57:47.705Z,99836.00
2018-11-29T05:00:24.037Z,99838.00
2018-11-29T05:03:01.178Z,99831.00
2018-11-29T05:05:37.389Z,99827.00
2018-11-29T05:08:13.771Z,99818.00
2018-11-29T05:10:49.911Z,99812.00
2018-11-29T05:13:26.108Z,99807.00
2018-11-29T05:16:02.348Z,99800.00
2018-11-29T05:18:38.581Z,99799.00
2018-11-29T05:21:14.969Z,99795.00
2018-11-29T05:23:51.143Z,99791.00
2018-11-29T05:26:27.365Z,99791.00
2018-11-29T05:29:03.540Z,99776.00
2018-11-29T05:31:39.718Z,99772.00
2018-11-29T05:34:15.940Z,99766.00
2018-11-29T05:36:52.099Z,99762.00
2018-11-29T05:39:28.321Z,99762.00
2018-11-29T05:42:04.468Z,99760.00
2018-11-29T05:44:40.688Z,99766.00
2018-11-29T05:47:16.844Z,99765.00
2018-11-29T05:49:53.059Z,99759.00
2018-11-29T05:52:29.372Z,99755.00
2018-11-29T05:55:07.940Z,99757.00
2018-11-29T05:57:44.171Z,99756.00
2018-11-29T06:00:20.373Z,99757.00
2018-11-29T06:02:56.724Z,99760.00
2018-11-29T06:05:33.093Z,99762.00
2018-11-29T06:08:09.501Z,99752.00
2018-11-29T06:10:45.776Z,99751.00
2018-11-29T06:13:22.106Z,99748.00
2018-11-29T06:15:58.249Z,99742.00
2018-11-29T06:18:34.445Z,99741.00
2018-11-29T06:21:10.666Z,99746.00
2018-11-29T06:23:46.823Z,99748.00
2018-11-29T06:26:22.993Z,99756.00
2018-11-29T06:28:59.206Z,99748.00
2018-11-29T06:31:35.372Z,99759.00
2018-11-29T06:34:11.525Z,99750.00
2018-11-29T06:36:47.686Z,99744.00
2018-11-29T06:39:23.845Z,99743.00
2018-11-29T06:42:00.196Z,99745.00
2018-11-29T06:44:36.301Z,99745.00
2018-11-29T06:47:12.656Z,99737.00
2018-11-29T06:49:48.797Z,99728.00
2018-11-29T06:52:25.012Z,99731.00
2018-11-29T06:55:01.331Z,99728.00
2018-11-29T06:57:37.930Z,99726.00
2018-11-29T07:00:20.682Z,99733.00
2018-11-29T07:02:59.847Z,99727.00
2018-11-29T07:05:36.233Z,99726.00
2018-11-29T07:08:12.588Z,99727.00
2018-11-29T07:10:48.834Z,99719.00
2018-11-29T07:13:25.002Z,99712.00
2018-11-29T07:16:01.154Z,99714.00
2018-11-29T07:18:37.612Z,99723.00
2018-11-29T07:21:30.795Z,99729.00
2018-11-29T07:24:07.261Z,99725.00
2018-11-29T07:26:43.563Z,99725.00
2018-11-29T07:29:19.882Z,99727.00
2018-11-29T07:31:56.309Z,99736.00
2018-11-29T07:34:32.609Z,99730.00
2018-11-29T07:37:08.804Z,99735.00
2018-11-29T07:39:44.961Z,99742.00
2018-11-29T07:42:21.107Z,99732.00
2018-11-29T07:44:57.229Z,99733.00
2018-11-29T07:47:33.472Z,99731.00
2018-11-29T07:50:14.827Z,99729.00
2018-11-29T07:52:51.112Z,99725.00
2018-11-29T07:55:27.426Z,99716.00
2018-11-29T07:58:03.638Z,99726.00
2018-11-29T08:00:39.885Z,99722.00
2018-11-29T08:03:16.075Z,99720.00
2018-11-29T08:05:52.297Z,99724.00
2018-11-29T08:08:28.718Z,99730.00
2018-11-29T08:11:04.927Z,99722.00
2018-11-29T08:13:41.789Z,99729.00
2018-11-29T08:16:17.984Z,99725.00
2018-11-29T08:18:54.281Z,99716.00
2018-11-29T08:21:30.512Z,99706.00
2018-11-29T08:24:07.451Z,99702.00
2018-11-29T08:26:43.790Z,99700.00
2018-11-29T08:29:20.253Z,99699.00
2018-11-29T08:31:56.560Z,99708.00
2018-11-29T08:34:32.702Z,99708.00
2018-11-29T08:37:08.964Z,99713.00
2018-11-29T08:39:45.309Z,99708.00
2018-11-29T08:42:21.447Z,99700.00
2018-11-29T08:44:57.645Z,99695.00
2018-11-29T08:47:33.851Z,99699.00
2018-11-29T08:50:12.801Z,99695.00
2018-11-29T08:52:49.069Z,99698.00
2018-11-29T08:55:25.341Z,99696.00
2018-11-29T08:58:01.533Z,99700.00
2018-11-29T09:00:37.651Z,99695.00
2018-11-29T09:03:13.844Z,99691.00
2018-11-29T09:05:50.109Z,99681.00
2018-11-29T09:08:26.295Z,99676.00
2018-11-29T09:11:02.586Z,99681.00
2018-11-29T09:13:38.779Z,99681.00
2018-11-29T09:16:14.933Z,99690.00
2018-11-29T09:18:51.155Z,99688.00
2018-11-29T09:21:27.481Z,99691.00
2018-11-29T09:24:03.836Z,99691.00
2018-11-29T09:26:40.025Z,99693.00
2018-11-29T09:29:16.375Z,99695.00
2018-11-29T09:31:52.736Z,99694.00
2018-11-29T09:34:28.988Z,99693.00
2018-11-29T09:37:05.288Z,99696.00
2018-11-29T09:39:41.463Z,99690.00
2018-11-29T09:42:17.676Z,99695.00
2018-11-29T09:44:53.870Z,99692.00
2018-11-29T09:47:30.016Z,99694.00
2018-11-29T09:50:10.514Z,99686.00
2018-11-29T09:52:46.590Z,99672.00
2018-11-29T09:55:22.809Z,99670.00
2018-11-29T09:57:59.012Z,99663.00
2018-11-29T10:00:35.401Z,99661.00
2018-11-29T10:03:13.747Z,99649.00
2018-11-29T10:05:50.218Z,99642.00
2018-11-29T10:08:26.448Z,99654.00
2018-11-29T10:11:02.756Z,99653.00
2018-11-29T10:13:45.959Z,99656.00
2018-11-29T10:16:15.527Z,99653.00
2018-11-29T10:18:51.657Z,99659.00
2018-11-29T10:21:28.004Z,99663.00
2018-11-29T10:24:04.326Z,99663.00
2018-11-29T10:26:40.543Z,99655.00
2018-11-29T10:29:16.821Z,99655.00
2018-11-29T10:31:53.080Z,99654.00
2018-11-29T10:34:29.264Z,99647.00
2018-11-29T10:37:05.877Z,99647.00
2018-11-29T10:39:42.300Z,99653.00
2018-11-29T10:42:18.516Z,99651.00
2018-11-29T10:44:54.833Z,99638.00
2018-11-29T10:47:31.030Z,99634.00
2018-11-29T10:50:10.810Z,99624.00
2018-11-29T10:52:46.929Z,99625.00
2018-11-29T10:55:23.234Z,99619.00
2018-11-29T10:57:59.420Z,99617.00
2018-11-29T11:00:40.865Z,99618.00
2018-11-29T11:03:19.698Z,99612.00
2018-11-29T11:05:55.885Z,99617.00
2018-11-29T11:08:32.119Z,99613.00
2018-11-29T11:11:08.692Z,99606.00
2018-11-29T11:13:44.819Z,99600.00
2018-11-29T11:16:21.013Z,99609.00
2018-11-29T11:18:57.192Z,99606.00
2018-11-29T11:21:33.349Z,99612.00
2018-11-29T11:24:09.604Z,99606.00
2018-11-29T11:26:45.936Z,99605.00
2018-11-29T11:29:22.069Z,99603.00
2018-11-29T11:31:58.308Z,99600.00
2018-11-29T11:34:34.615Z,99599.00
2018-11-29T11:37:10.815Z,99590.00
2018-11-29T11:39:47.156Z,99588.00
2018-11-29T11:42:23.511Z,99590.00
2018-11-29T11:44:59.701Z,99596.00
2018-11-29T11:47:36.012Z,99594.00
2018-11-29T11:50:15.158Z,99598.00
2018-11-29T11:52:52.230Z,99594.00
2018-11-29T11:55:30.277Z,99593.00
2018-11-29T11:58:04.616Z,99583.00
2018-11-29T12:00:41.024Z,99578.00
2018-11-29T12:03:17.864Z,99577.00
2018-11-29T12:05:54.133Z,99574.00
2018-11-29T12:08:30.418Z,99559.00
2018-11-29T12:11:07.104Z,99553.00
2018-11-29T12:13:43.439Z,99556.00
2018-11-29T12:16:19.788Z,99544.00
2018-11-29T12:19:02.095Z,99534.00
2018-11-29T12:21:32.128Z,99533.00
2018-11-29T12:24:08.565Z,99528.00
2018-11-29T12:26:44.750Z,99523.00
2018-11-29T12:29:20.969Z,99520.00
2018-11-29T12:31:57.283Z,99511.00
2018-11-29T12:34:33.519Z,99513.00
2018-11-29T12:37:09.735Z,99508.00
2018-11-29T12:39:46.074Z,99518.00
2018-11-29T12:42:22.457Z,99505.00
2018-11-29T12:44:58.709Z,99493.00
2018-11-29T12:47:34.896Z,99491.00
2018-11-29T12:50:17.599Z,99488.00
2018-11-29T12:52:53.797Z,99485.00
2018-11-29T12:55:30.052Z,99487.00
2018-11-29T12:58:06.281Z,99476.00
2018-11-29T13:00:42.476Z,99477.00
2018-11-29T13:03:18.715Z,99474.00
2018-11-29T13:05:54.959Z,99465.00
2018-11-29T13:08:31.237Z,99461.00
2018-11-29T13:11:10.681Z,99456.00
2018-11-29T13:13:43.590Z,99454.00
2018-11-29T13:16:19.762Z,99452.00
2018-11-29T13:18:55.867Z,99449.00
2018-11-29T13:21:32.005Z,99445.00
2018-11-29T13:24:08.268Z,99450.00
2018-11-29T13:26:44.566Z,99445.00
2018-11-29T13:29:20.760Z,99437.00
2018-11-29T13:31:57.012Z,99417.00
2018-11-29T13:34:33.188Z,99405.00
2018-11-29T13:37:09.480Z,99402.00
2018-11-29T13:39:45.758Z,99401.00
2018-11-29T13:42:21.954Z,99404.00
2018-11-29T13:44:58.109Z,99403.00
2018-11-29T13:47:34.452Z,99403.00
2018-11-29T13:50:14.334Z,99412.00
2018-11-29T13:52:50.466Z,99421.00
2018-11-29T13:55:26.791Z,99437.00
2018-11-29T13:58:03.026Z,99448.00
2018-11-29T14:00:39.309Z,99448.00
2018-11-29T14:03:16.065Z,99439.00
2018-11-29T14:05:53.001Z,99430.00
2018-11-29T14:08:29.173Z,99430.00
2018-11-29T14:11:05.361Z,99425.00
2018-11-29T14:13:41.676Z,99423.00
2018-11-29T14:16:17.892Z,99404.00
2018-11-29T14:18:54.223Z,99389.00
2018-11-29T14:21:30.413Z,99399.00
2018-11-29T14:24:06.677Z,99389.00
2018-11-29T14:26:42.938Z,99371.00
2018-11-29T14:29:19.220Z,99371.00
2018-11-29T14:31:55.492Z,99353.00
2018-11-29T14:34:31.659Z,99341.00
2018-11-29T14:37:08.064Z,99342.00
2018-11-29T14:39:44.360Z,99361.00
2018-11-29T14:42:20.527Z,99357.00
2018-11-29T14:44:56.714Z,99357.00
2018-11-29T14:47:32.876Z,99355.00
2018-11-29T14:50:23.782Z,99337.00
2018-11-29T14:53:00.077Z,99363.00
2018-11-29T14:55:37.124Z,99370.00
2018-11-29T14:58:19.579Z,99343.00
2018-11-29T15:00:51.030Z,99366.00
2018-11-29T15:03:27.179Z,99387.00
2018-11-29T15:06:03.577Z,99389.00
2018-11-29T15:08:39.901Z,99396.00
2018-11-29T15:11:16.092Z,99402.00
2018-11-29T15:13:52.305Z,99417.00
2018-11-29T15:16:28.458Z,99418.00
2018-11-29T15:19:04.579Z,99412.00
2018-11-29T15:21:40.733Z,99400.00
2018-11-29T15:24:16.898Z,99410.00
2018-11-29T15:26:53.101Z,99411.00
2018-11-29T15:29:29.284Z,99403.00
2018-11-29T15:32:05.857Z,99388.00
2018-11-29T15:34:42.192Z,99366.00
2018-11-29T15:37:18.475Z,99344.00
2018-11-29T15:39:54.800Z,99340.00
2018-11-29T15:42:31.008Z,99337.00
2018-11-29T15:45:13.475Z,99337.00
2018-11-29T15:47:49.820Z,99325.00
2018-11-29T15:50:26.004Z,99320.00
2018-11-29T15:53:02.198Z,99321.00
2018-11-29T15:55:38.457Z,99314.00
2018-11-29T15:58:14.716Z,99305.00
2018-11-29T16:00:50.861Z,99301.00
2018-11-29T16:03:27.040Z,99290.00
2018-11-29T16:06:03.229Z,99302.00
2018-11-29T16:08:39.422Z,99305.00
2018-11-29T16:11:15.579Z,99299.00
2018-11-29T16:13:51.852Z,99306.00
2018-11-29T16:16:27.989Z,99301.00
2018-11-29T16:19:04.396Z,99298.00
2018-11-29T16:21:40.686Z,99300.00
2018-11-29T16:24:16.968Z,99305.00
2018-11-29T16:26:53.081Z,99309.00
2018-11-29T16:29:29.351Z,99301.00
2018-11-29T16:32:06.994Z,99303.00
2018-11-29T16:34:43.112Z,99301.00
2018-11-29T16:37:19.403Z,99309.00
2018-11-29T16:39:55.652Z,99305.00
2018-11-29T16:42:32.027Z,99312.00
2018-11-29T16:45:15.100Z,99311.00
2018-11-29T16:47:51.239Z,99311.00
2018-11-29T16:50:27.522Z,99306.00
2018-11-29T16:53:03.755Z,99305.00
2018-11-29T16:55:40.001Z,99303.00
2018-11-29T16:58:18.771Z,99292.00
2018-11-29T17:00:54.896Z,99291.00
2018-11-29T17:03:31.023Z,99283.00
2018-11-29T17:06:07.208Z,99279.00
2018-11-29T17:08:43.325Z,99276.00
2018-11-29T17:11:19.620Z,99282.00
2018-11-29T17:13:55.968Z,99269.00
2018-11-29T17:16:32.247Z,99270.00
2018-11-29T17:19:08.605Z,99270.00
2018-11-29T17:21:44.848Z,99274.00
2018-11-29T17:24:20.972Z,99288.00
2018-11-29T17:26:57.107Z,99291.00
2018-11-29T17:29:33.332Z,99293.00
2018-11-29T17:32:09.491Z,99302.00
2018-11-29T17:34:45.657Z,99309.00
2018-11-29T17:37:21.853Z,99313.00
2018-11-29T17:39:58.057Z,99316.00
2018-11-29T17:42:34.388Z,99305.00
2018-11-29T17:45:15.338Z,99305.00
2018-11-29T17:47:53.639Z,99298.00
2018-11-29T17:50:35.047Z,99299.00
2018-11-29T17:53:11.372Z,99295.00
2018-11-29T17:55:47.533Z,99291.00
2018-11-29T17:58:23.657Z,99295.00
2018-11-29T18:00:59.996Z,99291.00
2018-11-29T18:03:36.345Z,99286.00
2018-11-29T18:06:12.592Z,99280.00
2018-11-29T18:08:49.123Z,99282.00
2018-11-29T18:11:25.231Z,99289.00
2018-11-29T18:14:01.456Z,99294.00
2018-11-29T18:16:37.564Z,99301.00
2018-11-29T18:19:13.779Z,99300.00
2018-11-29T18:21:50.065Z,99296.00
2018-11-29T18:24:26.376Z,99287.00
2018-11-29T18:27:02.930Z,99296.00
2018-11-29T18:29:39.439Z,99297.00
2018-11-29T18:32:15.777Z,99307.00
2018-11-29T18:34:52.136Z,99301.00
2018-11-29T18:37:28.762Z,99300.00
2018-11-29T18:40:08.822Z,99297.00
2018-11-29T18:42:46.665Z,99299.00
2018-11-29T18:45:21.973Z,99292.00
2018-11-29T18:47:58.360Z,99291.00
2018-11-29T18:50:34.539Z,99287.00
2018-11-29T18:53:10.823Z,99289.00
2018-11-29T18:55:47.268Z,99292.00
2018-11-29T18:58:23.486Z,99285.00
2018-11-29T19:01:00.912Z,99282.00
2018-11-29T19:03:37.349Z,99292.00
2018-11-29T19:06:13.627Z,99292.00
2018-11-29T19:08:50.029Z,99292.00
2018-11-29T19:11:26.260Z,99295.00
2018-11-29T19:14:02.559Z,99289.00
2018-11-29T19:16:38.757Z,99295.00
2018-11-29T19:19:15.098Z,99293.00
2018-11-29T19:21:51.445Z,99290.00
2018-11-29T19:24:27.646Z,99285.00
2018-11-29T19:27:04.535Z,99277.00
2018-11-29T19:29:42.309Z,99274.00
2018-11-29T19:32:18.861Z,99274.00
2018-11-29T19:34:55.048Z,99282.00
2018-11-29T19:37:31.323Z,99283.00
2018-11-29T19:40:15.889Z,99282.00
2018-11-29T19:42:52.030Z,99294.00
2018-11-29T19:45:28.257Z,99298.00
2018-11-29T19:48:05.215Z,99300.00
2018-11-29T19:50:41.496Z,99304.00
2018-11-29T19:53:22.440Z,99311.00
2018-11-29T19:56:01.090Z,99315.00
2018-11-29T19:58:37.180Z,99314.00
2018-11-29T20:01:13.379Z,99311.00
2018-11-29T20:03:49.664Z,99318.00
2018-11-29T20:06:26.020Z,99319.00
2018-11-29T20:09:02.609Z,99317.00
2018-11-29T20:11:39.133Z,99321.00
2018-11-29T20:14:15.377Z,99326.00
2018-11-29T20:16:51.648Z,99326.00
2018-11-29T20:19:27.802Z,99322.00
2018-11-29T20:22:04.005Z,99323.00
2018-11-29T20:24:46.849Z,99321.00
2018-11-29T20:27:23.502Z,99323.00
2018-11-29T20:29:59.796Z,99323.00
2018-11-29T20:32:36.188Z,99321.00
2018-11-29T20:35:13.348Z,99318.00
2018-11-29T20:37:51.145Z,99319.00
2018-11-29T20:40:30.745Z,99319.00
2018-11-29T20:43:07.092Z,99320.00
2018-11-29T20:45:59.800Z,99330.00
2018-11-29T20:48:36.256Z,99327.00
2018-11-29T20:51:12.531Z,99327.00
2018-11-29T20:53:48.873Z,99326.00
2018-11-29T20:56:25.189Z,99320.00
2018-11-29T20:59:01.528Z,99316.00
2018-11-29T21:01:37.668Z,99323.00
2018-11-29T21:04:13.846Z,99321.00
2018-11-29T21:06:50.137Z,99321.00
2018-11-29T21:09:26.496Z,99314.00
2018-11-29T21:12:02.649Z,99312.00
2018-11-29T21:14:38.911Z,99314.00
2018-11-29T21:17:15.405Z,99312.00
2018-11-29T21:19:51.683Z,99309.00
2018-11-29T21:22:27.855Z,99314.00
2018-11-29T21:25:04.169Z,99310.00
2018-11-29T21:27:40.364Z,99309.00
2018-11-29T21:30:17.364Z,99311.00
2018-11-29T21:32:53.580Z,99305.00
2018-11-29T21:35:29.897Z,99302.00
2018-11-29T21:38:17.700Z,99287.00
2018-11-29T21:41:00.884Z,99292.00
2018-11-29T21:43:37.113Z,99285.00
2018-11-29T21:46:13.261Z,99294.00
2018-11-29T21:48:49.752Z,99290.00
2018-11-29T21:51:25.918Z,99285.00
2018-11-29T21:54:02.259Z,99281.00
2018-11-29T21:56:38.405Z,99281.00
2018-11-29T21:59:14.615Z,99282.00
2018-11-29T22:01:50.857Z,99273.00
2018-11-29T22:04:27.054Z,99270.00
2018-11-29T22:07:03.312Z,99266.00
2018-11-29T22:09:39.538Z,99273.00
2018-11-29T22:12:15.657Z,99273.00
2018-11-29T22:14:51.869Z,99281.00
2018-11-29T22:17:28.056Z,99267.00
2018-11-29T22:20:05.215Z,99275.00
2018-11-29T22:22:41.361Z,99275.00
2018-11-29T22:25:17.668Z,99273.00
2018-11-29T22:27:53.859Z,99280.00
2018-11-29T22:30:30.056Z,99279.00
2018-11-29T22:33:06.886Z,99283.00
2018-11-29T22:35:43.193Z,99279.00
2018-11-29T22:38:19.481Z,99280.00
2018-11-29T22:40:55.662Z,99275.00
2018-11-29T22:43:32.114Z,99276.00
2018-11-29T22:46:08.193Z,99282.00
2018-11-29T22:48:44.492Z,99277.00
2018-11-29T22:51:20.709Z,99273.00
2018-11-29T22:53:56.859Z,99272.00
2018-11-29T22:56:33.081Z,99274.00
2018-11-29T22:59:09.513Z,99273.00
2018-11-29T23:01:45.945Z,99277.00
2018-11-29T23:04:22.157Z,99272.00
2018-11-29T23:06:58.570Z,99273.00
2018-11-29T23:09:35.009Z,99273.00
2018-11-29T23:12:11.365Z,99263.00
2018-11-29T23:14:47.780Z,99257.00
2018-11-29T23:17:24.127Z,99253.00
2018-11-29T23:20:00.453Z,99256.00
2018-11-29T23:22:36.658Z,99260.00
2018-11-29T23:25:14.163Z,99263.00
2018-11-29T23:27:51.408Z,99265.00
2018-11-29T23:30:27.744Z,99256.00
2018-11-29T23:33:03.904Z,99263.00
2018-11-29T23:35:40.217Z,99267.00
2018-11-29T23:38:16.506Z,99269.00
2018-11-29T23:40:52.749Z,99274.00
2018-11-29T23:43:29.112Z,99278.00
2018-11-29T23:46:05.552Z,99278.00
2018-11-29T23:48:41.703Z,99280.00
2018-11-29T23:51:17.941Z,99278.00
2018-11-29T23:53:54.276Z,99286.00
2018-11-29T23:56:30.432Z,99281.00
2018-11-29T23:59:06.754Z,99278.00
